Time;durP1;ratioP1;P1;durP2;ratioP2;P2;SDS_P1;SDS_P2;PMS_P1;PMS_P2;Temp;Humidity;BMP_temperature;BMP_pressure;BME280_temperature;BME280_humidity;BME280_pressure;Samples;Min_cycle;Max_cycle;Signal;HPM_P1;HPM_P2
2023/01/27 00:00:43;;;;;;;52.60;28.30;;;;;;;1.28;70.13;99360.44;108065;1306;22277;-40
2023/01/27 00:03:12;;;;;;;57.70;29.10;;;;;;;1.20;70.34;99360.92;108030;1306;22246;-40
2023/01/27 00:05:38;;;;;;;53.80;29.20;;;;;;;1.12;70.83;99361.38;108049;1306;22244;-40
2023/01/27 00:08:03;;;;;;;63.60;31.50;;;;;;;1.11;71.19;99360.69;108042;1306;22774;-39
2023/01/27 00:10:29;;;;;;;61.90;30.60;;;;;;;1.13;71.58;99358.93;108040;1306;22466;-39
2023/01/27 00:15:38;;;;;;;66.40;33.10;;;;;;;1.19;71.51;99355.56;108051;1306;22117;-41
2023/01/27 00:18:04;;;;;;;68.60;34.10;;;;;;;1.19;71.63;99354.37;108040;1306;22286;-41
2023/01/27 00:26:05;;;;;;;60.10;29.20;;;;;;;1.18;72.62;99367.34;108069;1306;22214;-40
2023/01/27 00:28:33;;;;;;;56.30;29.50;;;;;;;1.23;72.39;99364.16;108056;1306;23001;-40
2023/01/27 00:30:59;;;;;;;62.30;30.30;;;;;;;1.26;72.31;99366.67;108065;1306;22344;-40
2023/01/27 00:33:26;;;;;;;66.20;32.00;;;;;;;1.27;72.26;99366.31;108048;1306;22908;-40
2023/01/27 00:36:03;;;;;;;67.20;31.90;;;;;;;1.24;72.37;99370.86;108066;1306;22367;-40
2023/01/27 00:38:31;;;;;;;65.90;32.80;;;;;;;1.18;72.34;99369.57;108058;1306;22256;-40
2023/01/27 00:41:18;;;;;;;68.50;32.40;;;;;;;1.20;72.75;99370.42;108053;1306;22416;-41
2023/01/27 00:43:52;;;;;;;71.30;33.80;;;;;;;1.18;72.95;99373.39;108053;1306;22364;-40
2023/01/27 00:46:19;;;;;;;65.40;32.30;;;;;;;1.20;73.10;99375.26;108055;1306;22269;-41
2023/01/27 00:48:44;;;;;;;67.80;32.50;;;;;;;1.21;73.59;99377.99;108037;1306;22231;-41
2023/01/27 00:51:11;;;;;;;68.00;32.80;;;;;;;1.27;73.47;99380.13;108054;1306;22308;-40
2023/01/27 00:53:36;;;;;;;69.50;34.40;;;;;;;1.30;73.68;99383.88;108068;1306;22426;-46
2023/01/27 00:56:02;;;;;;;71.30;34.20;;;;;;;1.41;74.17;99386.65;108072;1306;22315;-40
2023/01/27 00:58:28;;;;;;;97.20;51.60;;;;;;;1.39;74.13;99388.92;108057;1306;22346;-41
2023/01/27 01:00:55;;;;;;;75.60;36.10;;;;;;;1.41;73.99;99389.92;108051;1306;23000;-40
2023/01/27 01:03:21;;;;;;;72.60;34.80;;;;;;;1.44;73.88;99392.80;108050;1306;22429;-39
2023/01/27 01:05:46;;;;;;;73.70;35.70;;;;;;;1.44;74.12;99394.02;108065;1306;22238;-41
2023/01/27 01:08:12;;;;;;;75.00;36.30;;;;;;;1.45;74.15;99393.67;108058;1306;22532;-40
2023/01/27 01:10:38;;;;;;;70.90;35.20;;;;;;;1.44;73.74;99394.02;108052;1306;22304;-40
2023/01/27 01:13:06;;;;;;;72.40;35.80;;;;;;;1.41;73.68;99392.01;108067;1306;22900;-39
2023/01/27 01:15:34;;;;;;;75.70;35.70;;;;;;;1.39;73.46;99392.38;108076;1306;22732;-39
2023/01/27 01:18:00;;;;;;;77.00;37.00;;;;;;;1.34;73.78;99389.35;108042;1306;22235;-40
2023/01/27 01:20:25;;;;;;;83.20;37.80;;;;;;;1.32;74.14;99386.45;108037;1306;22266;-40
2023/01/27 01:22:50;;;;;;;90.30;40.60;;;;;;;1.34;74.92;99387.96;108034;1306;22247;-40
2023/01/27 01:25:16;;;;;;;74.10;35.80;;;;;;;1.38;75.02;99388.95;108056;1306;22455;-39
2023/01/27 01:27:43;;;;;;;83.10;37.20;;;;;;;1.29;75.74;99383.56;108031;1306;22250;-41
2023/01/27 01:30:09;;;;;;;87.20;39.40;;;;;;;1.25;75.79;99379.48;108073;1306;22307;-40
2023/01/27 01:32:35;;;;;;;76.30;34.60;;;;;;;1.25;75.91;99379.98;108060;1306;22224;-40
2023/01/27 01:35:00;;;;;;;81.20;37.60;;;;;;;1.21;76.03;99373.34;108064;1306;22264;-41
2023/01/27 01:37:25;;;;;;;74.00;36.60;;;;;;;1.19;76.19;99374.05;108046;1306;22779;-40
2023/01/27 01:39:51;;;;;;;77.00;36.20;;;;;;;1.17;76.27;99374.59;108029;1306;22260;-41
2023/01/27 01:42:16;;;;;;;78.80;36.40;;;;;;;1.20;77.02;99371.61;108043;1306;22241;-40
2023/01/27 01:44:43;;;;;;;74.40;35.80;;;;;;;1.23;76.57;99370.53;108045;1306;23098;-41
2023/01/27 01:47:14;;;;;;;79.90;38.20;;;;;;;1.24;76.57;99370.01;108058;1306;22477;-40
2023/01/27 01:49:40;;;;;;;79.50;35.60;;;;;;;1.20;75.87;99372.48;108065;1306;22276;-40
2023/01/27 01:52:16;;;;;;;78.30;34.40;;;;;;;1.17;75.84;99371.81;108047;1306;22257;-40
2023/01/27 01:54:54;;;;;;;63.60;32.30;;;;;;;1.17;76.70;99373.39;108080;1306;23010;-40
2023/01/27 01:57:24;;;;;;;74.30;34.80;;;;;;;1.16;76.17;99372.04;108063;1306;22417;-40
2023/01/27 01:59:54;;;;;;;69.60;34.70;;;;;;;1.16;75.93;99371.34;108069;1306;22398;-41
2023/01/27 02:02:22;;;;;;;71.30;33.50;;;;;;;1.14;76.03;99368.77;108059;1306;22888;-40
2023/01/27 02:04:56;;;;;;;72.30;33.70;;;;;;;1.16;75.78;99366.68;108040;1306;23067;-43
2023/01/27 02:07:29;;;;;;;79.50;35.00;;;;;;;1.19;75.94;99367.48;108041;1306;23027;-41
2023/01/27 02:09:55;;;;;;;72.00;34.90;;;;;;;1.18;75.93;99368.54;108059;1306;23089;-41
2023/01/27 02:12:21;;;;;;;75.00;36.00;;;;;;;1.18;75.67;99369.76;108038;1306;23250;-40
2023/01/27 02:14:46;;;;;;;78.40;36.00;;;;;;;1.21;75.92;99370.22;108057;1306;22460;-40
2023/01/27 02:17:12;;;;;;;69.10;35.60;;;;;;;1.24;76.45;99375.02;108031;1306;22235;-40
2023/01/27 02:20:09;;;;;;;65.70;32.90;;;;;;;1.25;77.21;99373.44;108050;1306;23167;-40
2023/01/27 02:23:01;;;;;;;79.40;36.30;;;;;;;1.29;76.87;99377.17;107981;1306;22256;-40
2023/01/27 02:25:35;;;;;;;75.90;35.10;;;;;;;1.30;77.03;99380.09;107727;1306;22252;-40
2023/01/27 02:28:02;;;;;;;72.70;35.60;;;;;;;1.28;77.53;99382.35;108069;1306;22949;-40
2023/01/27 02:30:28;;;;;;;81.90;36.70;;;;;;;1.32;77.17;99386.46;108066;1306;22259;-41
2023/01/27 02:32:53;;;;;;;75.40;35.00;;;;;;;1.29;76.90;99385.96;108057;1306;23161;-41
2023/01/27 02:35:28;;;;;;;81.00;38.00;;;;;;;1.27;76.86;99381.52;108039;1306;22389;-40
2023/01/27 02:37:55;;;;;;;81.60;36.60;;;;;;;1.23;77.49;99382.95;108028;1306;22262;-40
2023/01/27 02:43:30;;;;;;;81.80;37.10;;;;;;;1.21;78.06;99388.52;107078;1302;544800;-39
2023/01/27 02:45:55;;;;;;;86.00;37.90;;;;;;;1.16;78.07;99389.63;107483;1311;23235;-40
2023/01/27 02:48:21;;;;;;;85.60;39.50;;;;;;;1.15;78.03;99391.37;107657;1310;22252;-41
2023/01/27 02:50:46;;;;;;;84.40;37.40;;;;;;;1.17;78.35;99391.37;107557;1305;22256;-41
2023/01/27 02:53:11;;;;;;;82.60;40.20;;;;;;;1.12;78.12;99392.80;107547;1311;23209;-41
2023/01/27 02:55:37;;;;;;;79.10;36.30;;;;;;;1.11;78.81;99392.65;107551;1311;22263;-40
2023/01/27 02:58:02;;;;;;;74.50;37.00;;;;;;;1.17;78.88;99386.52;107673;1308;148441;-40
2023/01/27 03:00:28;;;;;;;82.50;36.60;;;;;;;1.23;78.45;99389.35;107771;1308;22468;-40
2023/01/27 03:02:53;;;;;;;80.10;38.90;;;;;;;1.14;79.02;99389.66;107759;1308;22263;-41
2023/01/27 03:05:18;;;;;;;83.70;37.90;;;;;;;1.14;79.32;99389.30;107758;1308;22310;-41
2023/01/27 03:07:44;;;;;;;77.80;36.20;;;;;;;1.15;79.56;99390.69;107796;1308;22228;-41
2023/01/27 03:10:10;;;;;;;79.40;38.10;;;;;;;1.18;79.12;99394.96;107758;1308;22278;-41
2023/01/27 03:12:35;;;;;;;90.60;37.60;;;;;;;1.16;79.43;99394.48;107760;1308;22529;-41
2023/01/27 03:20:29;;;;;;;89.50;37.10;;;;;;;1.17;79.68;99399.27;107814;1308;22415;-41
2023/01/27 03:22:54;;;;;;;102.70;43.40;;;;;;;1.11;80.30;99396.63;107773;1308;22284;-41
2023/01/27 03:25:20;;;;;;;86.70;40.70;;;;;;;1.11;81.00;99390.92;107760;1308;22535;-40
2023/01/27 03:27:45;;;;;;;82.40;36.60;;;;;;;1.15;81.29;99393.45;107807;1308;22257;-41
2023/01/27 03:30:11;;;;;;;92.30;38.60;;;;;;;1.18;81.11;99395.13;107794;1308;23231;-40
2023/01/27 03:32:36;;;;;;;81.00;38.00;;;;;;;1.22;81.58;99395.76;107792;1308;22896;-40
2023/01/27 03:35:02;;;;;;;84.70;38.30;;;;;;;1.22;81.31;99400.95;107792;1308;22835;-40
2023/01/27 03:48:33;;;;;;;88.90;37.10;;;;;;;1.15;83.77;99394.13;107817;1308;22391;-41
2023/01/27 03:51:00;;;;;;;78.00;35.00;;;;;;;1.17;83.53;99390.83;107822;1308;22236;-41
2023/01/27 03:53:25;;;;;;;84.70;39.30;;;;;;;1.15;83.54;99391.89;107803;1309;23048;-41
2023/01/27 03:55:51;;;;;;;102.70;41.40;;;;;;;1.11;83.83;99389.70;107798;1309;23104;-40
2023/01/27 03:58:32;;;;;;;80.20;35.80;;;;;;;1.15;84.05;99392.94;107752;1309;22217;-40
2023/01/27 04:01:01;;;;;;;86.70;36.60;;;;;;;1.12;83.04;99402.13;107766;1309;22281;-41
2023/01/27 04:09:08;;;;;;;76.80;35.90;;;;;;;1.04;83.66;99399.48;107946;1307;22225;-40
2023/01/27 04:14:18;;;;;;;83.10;35.10;;;;;;;0.95;84.75;99399.09;107606;1307;22252;-41
2023/01/27 04:16:43;;;;;;;78.30;35.10;;;;;;;0.95;85.40;99398.05;107921;1307;22203;-41
2023/01/27 04:19:10;;;;;;;78.50;36.10;;;;;;;0.95;85.77;99398.75;107886;1308;22260;-40
2023/01/27 04:21:36;;;;;;;82.70;36.60;;;;;;;0.94;85.82;99397.91;107895;1307;23208;-39
2023/01/27 04:24:03;;;;;;;82.30;37.40;;;;;;;0.89;86.17;99396.77;107900;1307;22434;-40
2023/01/27 04:26:33;;;;;;;85.10;38.00;;;;;;;0.87;86.53;99399.91;107911;1308;22512;-40
2023/01/27 04:29:01;;;;;;;82.40;36.70;;;;;;;0.88;86.65;99399.54;107912;1308;23716;-40
2023/01/27 04:31:26;;;;;;;90.70;39.00;;;;;;;0.86;86.97;99402.70;107916;1307;22432;-41
2023/01/27 04:33:51;;;;;;;90.10;40.80;;;;;;;0.87;87.26;99403.34;107888;1308;23178;-38
2023/01/27 04:36:17;;;;;;;91.30;43.10;;;;;;;0.88;87.08;99409.54;107895;1308;22277;-40
2023/01/27 04:38:42;;;;;;;89.10;38.50;;;;;;;0.89;87.70;99409.88;107888;1308;23132;-39
2023/01/27 04:41:07;;;;;;;85.80;36.80;;;;;;;0.92;87.74;99406.40;107903;1307;22297;-39
2023/01/27 04:43:33;;;;;;;91.80;37.40;;;;;;;0.93;87.70;99409.15;107891;1308;22228;-39
2023/01/27 04:45:58;;;;;;;79.30;36.20;;;;;;;0.96;87.32;99408.56;106891;1308;22580;-38
2023/01/27 04:48:24;;;;;;;80.40;36.10;;;;;;;0.99;86.83;99408.88;106763;1308;22570;-38
2023/01/27 04:50:49;;;;;;;82.20;36.80;;;;;;;0.96;87.25;99407.38;106790;1308;26424;-39
2023/01/27 04:53:14;;;;;;;84.80;36.50;;;;;;;0.95;87.52;99408.59;106766;1308;22568;-37
2023/01/27 04:55:47;;;;;;;92.10;39.80;;;;;;;0.96;87.68;99408.40;107825;1307;22568;-41
2023/01/27 04:58:13;;;;;;;92.90;40.20;;;;;;;0.94;88.07;99406.71;107892;1307;22346;-48
2023/01/27 05:00:38;;;;;;;91.90;40.10;;;;;;;0.92;88.61;99407.59;107911;1307;22479;-41
2023/01/27 05:03:04;;;;;;;91.70;39.00;;;;;;;0.98;88.44;99409.58;107932;1308;23035;-41
2023/01/27 05:05:30;;;;;;;86.40;39.80;;;;;;;1.03;88.02;99411.23;107895;1308;22316;-40
2023/01/27 05:07:56;;;;;;;94.60;39.90;;;;;;;1.06;88.02;99417.59;107937;1307;22435;-42
2023/01/27 05:10:21;;;;;;;83.40;39.40;;;;;;;1.09;87.99;99418.58;107915;1307;22560;-41
2023/01/27 05:12:46;;;;;;;91.60;38.80;;;;;;;1.10;87.94;99418.57;107924;1308;22471;-41
2023/01/27 05:15:12;;;;;;;84.00;39.80;;;;;;;1.12;87.92;99419.91;107872;1308;22494;-40
2023/01/27 05:17:37;;;;;;;93.00;39.20;;;;;;;1.14;87.63;99420.58;107897;1308;22404;-41
2023/01/27 05:20:03;;;;;;;90.50;39.50;;;;;;;1.13;87.49;99421.45;107907;1308;22273;-41
2023/01/27 05:22:28;;;;;;;91.70;38.40;;;;;;;1.17;87.18;99423.46;107879;1308;22268;-42
2023/01/27 05:24:54;;;;;;;86.80;38.80;;;;;;;1.18;87.11;99424.66;107976;1307;22317;-41
2023/01/27 05:27:19;;;;;;;88.40;39.10;;;;;;;1.20;87.11;99428.43;107971;1305;22437;-42
2023/01/27 05:29:44;;;;;;;87.10;39.00;;;;;;;1.25;86.82;99432.50;107994;1307;22318;-41
2023/01/27 05:32:09;;;;;;;88.30;39.00;;;;;;;1.29;86.60;99430.02;108000;1307;22475;-42
2023/01/27 05:34:35;;;;;;;98.60;41.00;;;;;;;1.29;86.56;99437.11;107971;1307;22451;-41
2023/01/27 05:37:00;;;;;;;95.80;40.20;;;;;;;1.28;86.81;99437.98;107975;1307;22175;-41
2023/01/27 05:39:26;;;;;;;86.40;39.90;;;;;;;1.30;86.61;99437.44;107979;1307;23245;-41
2023/01/27 05:41:53;;;;;;;95.00;41.20;;;;;;;1.34;86.50;99436.84;107986;1307;22447;-41
2023/01/27 05:44:18;;;;;;;103.30;41.90;;;;;;;1.34;86.23;99438.56;107990;1307;22251;-41
2023/01/27 05:46:43;;;;;;;97.40;41.60;;;;;;;1.35;86.36;99434.60;107984;1307;23315;-42
2023/01/27 05:49:09;;;;;;;99.30;43.50;;;;;;;1.32;86.39;99442.41;107977;1307;22429;-41
2023/01/27 05:51:36;;;;;;;104.70;43.80;;;;;;;1.30;86.45;99438.64;107991;1307;22972;-42
2023/01/27 05:54:02;;;;;;;98.10;42.30;;;;;;;1.31;86.61;99439.83;107984;1307;22836;-42
2023/01/27 05:56:28;;;;;;;109.00;43.70;;;;;;;1.31;86.54;99443.64;107972;1307;22280;-42
2023/01/27 05:58:55;;;;;;;104.50;42.70;;;;;;;1.27;86.53;99446.11;107999;1307;22433;-41
2023/01/27 06:01:23;;;;;;;101.00;43.30;;;;;;;1.28;86.15;99445.77;108021;1307;22240;-41
2023/01/27 06:03:48;;;;;;;111.70;43.50;;;;;;;1.19;86.76;99446.23;107997;1307;22242;-41
2023/01/27 06:06:17;;;;;;;104.50;42.50;;;;;;;1.18;87.09;99446.93;107984;1307;22337;-41
2023/01/27 06:08:44;;;;;;;104.40;44.20;;;;;;;1.14;87.41;99448.55;107981;1307;22418;-40
2023/01/27 06:11:09;;;;;;;110.70;47.20;;;;;;;1.14;87.30;99451.98;107999;1307;22248;-40
2023/01/27 06:13:37;;;;;;;110.30;46.70;;;;;;;1.09;87.54;99455.01;107973;1307;22348;-40
2023/01/27 06:16:03;;;;;;;;;;;;;;;1.09;87.84;99460.00;107995;1307;22429;-40
2023/01/27 06:18:29;;;;;;;105.60;41.80;;;;;;;1.11;87.88;99463.10;107976;1307;22258;-40
2023/01/27 06:20:59;;;;;;;107.00;41.60;;;;;;;1.08;87.70;99466.07;108000;1307;22259;-39
2023/01/27 06:23:26;;;;;;;116.40;43.20;;;;;;;1.12;86.98;99471.02;107993;1307;22254;-39
2023/01/27 06:25:52;;;;;;;121.60;44.80;;;;;;;1.08;86.87;99470.56;108017;1285;22795;-39
2023/01/27 06:28:17;;;;;;;120.60;46.70;;;;;;;1.05;87.64;99474.75;107994;1307;22307;-39
2023/01/27 06:30:43;;;;;;;128.50;48.90;;;;;;;1.11;87.66;99476.56;108007;1307;22430;-39
2023/01/27 06:33:09;;;;;;;132.20;47.30;;;;;;;1.12;87.70;99472.58;107997;1307;22483;-39
2023/01/27 06:35:36;;;;;;;117.40;44.50;;;;;;;1.10;87.89;99476.73;107960;1307;23490;-40
2023/01/27 06:38:05;;;;;;;117.90;43.80;;;;;;;1.12;88.11;99477.77;108002;1307;22336;-38
2023/01/27 06:40:31;;;;;;;111.90;42.00;;;;;;;1.16;87.83;99478.74;108005;1307;22206;-40
2023/01/27 06:42:57;;;;;;;112.10;44.80;;;;;;;1.18;87.54;99482.17;107997;1307;22382;-40
2023/01/27 06:45:22;;;;;;;105.20;40.60;;;;;;;1.18;87.53;99486.14;108008;1307;22234;-39
2023/01/27 06:47:59;;;;;;;115.30;41.70;;;;;;;1.22;87.69;99490.06;107986;1307;22456;-40
2023/01/27 06:50:28;;;;;;;102.40;39.60;;;;;;;1.26;87.43;99491.55;107998;1307;23168;-40
2023/01/27 06:53:01;;;;;;;105.80;40.00;;;;;;;1.27;87.42;99491.38;107988;1307;22222;-40
2023/01/27 06:55:27;;;;;;;103.80;40.50;;;;;;;1.30;87.22;99491.67;107982;1307;22930;-40
2023/01/27 06:57:53;;;;;;;110.00;43.30;;;;;;;1.32;87.32;99492.51;107998;1307;22522;-39
2023/01/27 07:00:18;;;;;;;127.90;42.00;;;;;;;1.34;87.46;99496.10;108001;1307;22226;-39
2023/01/27 07:02:44;;;;;;;114.90;41.90;;;;;;;1.35;87.31;99495.74;108010;1306;23017;-39
2023/01/27 07:05:10;;;;;;;111.30;41.60;;;;;;;1.36;87.16;99497.80;107998;1307;22388;-39
2023/01/27 07:07:36;;;;;;;104.60;40.10;;;;;;;1.37;87.07;99494.68;107982;1307;23227;-41
2023/01/27 07:10:02;;;;;;;113.20;38.50;;;;;;;1.40;86.93;99497.23;107987;1307;22623;-40
2023/01/27 07:12:28;;;;;;;105.00;38.30;;;;;;;1.40;86.61;99497.22;107985;1307;22977;-44
2023/01/27 07:14:53;;;;;;;107.10;40.00;;;;;;;1.39;86.62;99498.98;107991;1304;23189;-40
2023/01/27 07:17:19;;;;;;;113.10;41.40;;;;;;;1.43;86.75;99499.09;108009;1307;22145;-41
2023/01/27 07:19:44;;;;;;;107.80;39.40;;;;;;;1.43;86.73;99492.16;107997;1307;22234;-41
2023/01/27 07:22:09;;;;;;;117.70;40.80;;;;;;;1.48;86.70;99495.89;108007;1307;22284;-41
2023/01/27 07:24:35;;;;;;;108.00;41.10;;;;;;;1.50;86.42;99498.11;107983;1307;22214;-41
2023/01/27 07:27:00;;;;;;;101.80;39.60;;;;;;;1.51;86.49;99500.51;108007;1307;23047;-40
2023/01/27 07:29:25;;;;;;;115.40;44.10;;;;;;;1.55;86.47;99501.66;107994;1307;22246;-41
2023/01/27 07:31:51;;;;;;;114.80;43.40;;;;;;;1.56;86.24;99504.92;107981;1307;22405;-41
2023/01/27 07:34:16;;;;;;;113.00;42.90;;;;;;;1.57;85.91;99506.65;108020;1307;23042;-40
2023/01/27 07:36:41;;;;;;;105.80;40.60;;;;;;;1.52;85.67;99508.62;107982;1307;22245;-41
2023/01/27 07:39:07;;;;;;;104.60;41.30;;;;;;;1.54;85.69;99509.28;108002;1307;24406;-41
2023/01/27 07:41:33;;;;;;;106.00;40.40;;;;;;;1.50;85.93;99510.03;107999;1307;22342;-45
2023/01/27 07:43:58;;;;;;;110.20;42.10;;;;;;;1.48;85.92;99506.78;108001;1307;22228;-41
2023/01/27 07:46:23;;;;;;;110.80;40.70;;;;;;;1.48;86.19;99504.54;108002;1307;22382;-40
2023/01/27 07:48:49;;;;;;;108.50;41.00;;;;;;;1.48;85.99;99504.52;107975;1307;22231;-40
2023/01/27 07:51:14;;;;;;;119.80;46.30;;;;;;;1.50;85.66;99504.84;107994;1307;22452;-41
2023/01/27 07:53:40;;;;;;;121.50;48.30;;;;;;;1.49;85.81;99504.17;108003;1307;22249;-41
2023/01/27 07:56:10;;;;;;;120.80;47.90;;;;;;;1.44;86.62;99506.67;108015;1307;22264;-40
2023/01/27 07:58:40;;;;;;;107.30;42.40;;;;;;;1.44;87.03;99510.82;108003;1307;22273;-40
2023/01/27 08:01:10;;;;;;;105.70;41.70;;;;;;;1.45;86.68;99510.64;107990;1307;23094;-38
2023/01/27 08:03:36;;;;;;;122.30;47.20;;;;;;;1.43;86.88;99506.86;108020;1307;23243;-41
2023/01/27 08:06:06;;;;;;;112.30;45.00;;;;;;;1.43;86.89;99506.51;107993;1307;22469;-40
2023/01/27 08:08:32;;;;;;;119.70;44.30;;;;;;;1.47;86.66;99511.96;107982;1307;22509;-40
2023/01/27 08:11:03;;;;;;;110.00;45.10;;;;;;;1.48;86.93;99511.61;108013;1307;22438;-41
2023/01/27 08:13:30;;;;;;;92.30;38.40;;;;;;;1.44;86.99;99509.08;107993;1307;22425;-41
2023/01/27 08:15:59;;;;;;;111.70;43.30;;;;;;;1.42;86.70;99510.67;107994;1307;22310;-40
2023/01/27 08:18:26;;;;;;;107.70;42.00;;;;;;;1.45;86.89;99510.45;108034;1307;22396;-41
2023/01/27 08:20:53;;;;;;;91.70;41.40;;;;;;;1.47;86.69;99511.12;107988;1307;22316;-40
2023/01/27 08:23:20;;;;;;;94.50;41.30;;;;;;;1.48;86.34;99516.11;108002;1307;22387;-40
2023/01/27 08:25:53;;;;;;;96.90;41.00;;;;;;;1.52;86.41;99519.67;108009;1307;22261;-40
2023/01/27 08:28:19;;;;;;;95.40;40.20;;;;;;;1.58;86.07;99517.33;108003;1307;22261;-40
2023/01/27 08:30:45;;;;;;;94.60;38.50;;;;;;;1.64;85.79;99521.56;107997;1307;22992;-40
2023/01/27 08:33:11;;;;;;;97.40;39.10;;;;;;;1.68;85.63;99522.73;108014;1307;22332;-41
2023/01/27 08:35:38;;;;;;;94.10;38.20;;;;;;;1.69;85.15;99528.23;107977;1307;22316;-41
2023/01/27 08:38:04;;;;;;;96.70;39.20;;;;;;;1.70;85.02;99526.50;108011;1307;22389;-40
2023/01/27 08:40:29;;;;;;;102.50;42.40;;;;;;;1.75;85.18;99526.42;107992;1307;22925;-40
2023/01/27 08:42:55;;;;;;;109.40;44.40;;;;;;;1.78;85.33;99528.44;107987;1307;22990;-40
2023/01/27 08:45:20;;;;;;;89.10;37.00;;;;;;;1.77;84.85;99525.17;107999;1307;22227;-41
2023/01/27 08:47:46;;;;;;;71.40;29.50;;;;;;;1.86;84.08;99526.94;107994;1307;23166;-40
2023/01/27 08:50:11;;;;;;;62.60;28.20;;;;;;;1.85;82.75;99534.39;108002;1307;22233;-40
2023/01/27 08:52:37;;;;;;;61.80;28.50;;;;;;;1.86;82.31;99535.94;107726;1307;22284;-40
2023/01/27 08:55:02;;;;;;;64.20;28.60;;;;;;;1.90;82.25;99535.86;108009;1307;23425;-40
2023/01/27 08:57:31;;;;;;;56.90;23.60;;;;;;;1.93;81.94;99538.41;107982;1307;22298;-40
2023/01/27 08:59:57;;;;;;;70.20;26.70;;;;;;;1.86;81.22;99540.42;108019;1307;22232;-40
2023/01/27 09:02:23;;;;;;;62.50;27.40;;;;;;;1.86;81.26;99545.09;107989;1307;22346;-40
2023/01/27 09:04:49;;;;;;;52.00;24.50;;;;;;;1.88;81.42;99545.92;107995;1307;22184;-40
2023/01/27 09:07:14;;;;;;;48.60;23.20;;;;;;;1.90;80.90;99542.79;107983;1307;22244;-40
2023/01/27 09:09:40;;;;;;;52.30;24.10;;;;;;;1.90;80.16;99544.85;107994;1307;22439;-40
2023/01/27 09:12:05;;;;;;;61.60;25.00;;;;;;;1.91;80.49;99547.25;107982;1307;23041;-40
2023/01/27 09:14:30;;;;;;;65.50;26.50;;;;;;;1.93;80.75;99553.63;107809;1307;23088;-41
2023/01/27 09:16:56;;;;;;;64.10;27.60;;;;;;;1.94;81.23;99555.85;108005;1307;22251;-40
2023/01/27 09:19:21;;;;;;;63.60;28.60;;;;;;;1.92;81.42;99555.20;107999;1307;22961;-40
2023/01/27 09:21:46;;;;;;;66.80;28.00;;;;;;;1.91;81.55;99556.08;107990;1302;23358;-40
2023/01/27 09:24:16;;;;;;;73.60;30.10;;;;;;;1.95;81.53;99560.52;107993;1307;23209;-40
2023/01/27 09:26:42;;;;;;;68.60;29.80;;;;;;;1.95;81.67;99563.80;108012;1307;22954;-40
2023/01/27 09:29:07;;;;;;;90.80;39.30;;;;;;;1.90;81.87;99565.60;107995;1307;22197;-40
2023/01/27 09:31:32;;;;;;;100.40;46.20;;;;;;;1.83;81.88;99569.16;107996;1307;22242;-40
2023/01/27 09:33:58;;;;;;;66.80;29.10;;;;;;;1.81;81.79;99564.36;108038;1306;22403;-40
2023/01/27 09:36:23;;;;;;;66.90;28.20;;;;;;;1.85;81.68;99566.19;108031;1306;23049;-40
2023/01/27 09:38:59;;;;;;;58.60;26.40;;;;;;;1.88;82.08;99567.19;108037;1306;23032;-40
2023/01/27 09:41:45;;;;;;;64.10;26.70;;;;;;;1.88;82.06;99565.97;108060;1306;23074;-40
2023/01/27 09:44:42;;;;;;;68.10;28.10;;;;;;;1.85;81.79;99571.38;108055;1306;22317;-40
2023/01/27 09:47:28;;;;;;;62.20;26.10;;;;;;;1.80;81.13;99573.02;108052;1306;22477;-41
2023/01/27 09:50:08;;;;;;;65.10;29.30;;;;;;;1.77;81.26;99574.44;108043;1306;22246;-40
2023/01/27 09:53:07;;;;;;;69.10;28.30;;;;;;;1.79;82.21;99570.61;108027;1306;23238;-41
2023/01/27 09:56:07;;;;;;;69.20;27.90;;;;;;;1.84;82.95;99570.88;107938;1306;22356;-40
2023/01/27 09:58:41;;;;;;;65.70;26.70;;;;;;;1.83;83.46;99573.84;107977;1306;23150;-40
2023/01/27 10:01:10;;;;;;;72.10;31.70;;;;;;;1.80;84.07;99577.85;108010;1306;22338;-40
2023/01/27 10:03:42;;;;;;;80.90;33.50;;;;;;;1.75;83.97;99579.83;108006;1307;22239;-40
2023/01/27 10:06:44;;;;;;;62.70;27.60;;;;;;;1.77;85.06;99578.94;108003;1307;22385;-40
2023/01/27 10:09:35;;;;;;;57.30;25.50;;;;;;;1.79;85.31;99579.25;108004;1307;22296;-40
2023/01/27 10:12:22;;;;;;;52.10;22.40;;;;;;;1.82;85.28;99578.34;108043;1299;22421;-40
2023/01/27 10:14:56;;;;;;;50.50;21.40;;;;;;;1.83;85.18;99581.95;108045;1306;22418;-42
2023/01/27 10:17:46;;;;;;;49.20;20.30;;;;;;;1.86;84.98;99585.54;108052;1306;22398;-40
2023/01/27 10:20:31;;;;;;;48.00;21.70;;;;;;;1.87;84.44;99581.38;108073;1306;22371;-41
2023/01/27 10:23:24;;;;;;;52.10;24.60;;;;;;;1.85;83.52;99582.27;107999;1307;22444;-40
2023/01/27 10:26:28;;;;;;;57.40;23.30;;;;;;;1.89;83.19;99584.80;107998;1301;22241;-41
2023/01/27 10:29:04;;;;;;;60.40;26.80;;;;;;;1.93;83.48;99582.15;107952;1307;22411;-40
2023/01/27 10:31:46;;;;;;;74.70;30.60;;;;;;;1.94;82.60;99585.23;107983;1307;22233;-40
2023/01/27 10:34:22;;;;;;;66.00;29.30;;;;;;;1.97;82.19;99580.71;107973;1307;22414;-40
2023/01/27 10:37:11;;;;;;;59.00;25.40;;;;;;;1.98;82.54;99578.98;107992;1307;22341;-39
2023/01/27 10:39:50;;;;;;;53.90;22.60;;;;;;;2.00;81.77;99580.50;107983;1307;22316;-40
2023/01/27 10:42:37;;;;;;;59.50;25.60;;;;;;;2.04;81.48;99582.16;108011;1300;22335;-41
2023/01/27 10:45:22;;;;;;;48.90;22.80;;;;;;;2.04;81.26;99583.37;108014;1306;22452;-40
2023/01/27 10:48:08;;;;;;;72.40;28.60;;;;;;;1.96;79.55;99580.72;107998;1307;22370;-44
2023/01/27 10:50:45;;;;;;;62.40;26.80;;;;;;;1.97;79.84;99584.17;107978;1307;23298;-41
2023/01/27 10:53:15;;;;;;;60.20;24.40;;;;;;;1.94;79.93;99585.23;107986;1302;22263;-41
2023/01/27 10:56:28;;;;;;;53.30;23.10;;;;;;;1.92;79.80;99583.02;108021;1307;22296;-40
2023/01/27 10:59:16;;;;;;;46.40;23.80;;;;;;;1.95;79.62;99578.84;107170;1314;22448;-41
2023/01/27 11:01:47;;;;;;;53.60;25.40;;;;;;;2.00;79.20;99579.46;107163;1310;22354;-41
2023/01/27 11:04:20;;;;;;;47.80;24.00;;;;;;;2.06;79.04;99580.56;107205;1314;22253;-41
2023/01/27 11:06:47;;;;;;;46.20;21.50;;;;;;;2.19;79.52;99583.29;107187;1298;22491;-41
2023/01/27 11:09:30;;;;;;;49.40;23.50;;;;;;;2.28;79.82;99579.51;107182;1308;22083;-40
2023/01/27 11:12:01;;;;;;;59.00;25.70;;;;;;;2.28;78.28;99576.92;107181;1308;22272;-41
2023/01/27 11:14:40;;;;;;;57.00;24.60;;;;;;;2.38;78.45;99573.64;107158;1315;22290;-41
2023/01/27 11:17:20;;;;;;;63.20;26.40;;;;;;;2.40;78.62;99566.16;107157;1315;22252;-41
2023/01/27 11:19:58;;;;;;;56.30;25.30;;;;;;;2.37;77.82;99566.55;107153;1315;22237;-41
2023/01/27 11:22:32;;;;;;;58.10;25.40;;;;;;;2.46;78.19;99563.63;107160;1312;22290;-41
2023/01/27 11:25:16;;;;;;;67.60;27.10;;;;;;;2.55;78.44;99558.45;107195;1307;22370;-41
2023/01/27 11:28:02;;;;;;;53.80;25.40;;;;;;;2.61;77.47;99555.21;107197;1308;22408;-41
2023/01/27 11:30:38;;;;;;;58.00;26.30;;;;;;;2.67;76.34;99554.07;107197;1314;22416;-41
2023/01/27 11:33:17;;;;;;;51.80;25.90;;;;;;;2.77;76.46;99554.57;107177;1314;23061;-41
2023/01/27 11:35:43;;;;;;;61.30;29.20;;;;;;;2.79;76.15;99553.50;108010;1302;22491;-41
2023/01/27 11:38:16;;;;;;;59.50;27.00;;;;;;;2.77;75.87;99552.33;108005;1305;22223;-42
2023/01/27 11:40:44;;;;;;;71.70;30.00;;;;;;;2.79;76.04;99554.70;107996;1306;22282;-41
2023/01/27 11:43:14;;;;;;;;;;;;;;;2.81;76.54;99552.42;108027;1307;22488;-40
2023/01/27 11:45:40;;;;;;;62.10;25.70;;;;;;;2.82;76.36;99549.62;108003;1299;22381;-40
2023/01/27 11:48:12;;;;;;;58.90;28.40;;;;;;;2.71;75.61;99548.45;107990;1300;22297;-41
2023/01/27 11:50:40;;;;;;;59.10;27.30;;;;;;;2.75;76.10;99549.95;108018;1302;22631;-41
2023/01/27 11:53:31;;;;;;;65.80;28.00;;;;;;;2.67;75.74;99553.05;108003;1305;22421;-41
2023/01/27 11:56:00;;;;;;;63.10;27.00;;;;;;;2.66;75.75;99549.94;108016;1307;22426;-41
2023/01/27 11:58:33;;;;;;;60.60;25.70;;;;;;;2.71;76.15;99549.85;108010;1307;22383;-41
2023/01/27 12:01:02;;;;;;;56.80;24.40;;;;;;;2.85;77.00;99553.40;108024;1301;22430;-41
2023/01/27 12:03:53;;;;;;;61.00;27.70;;;;;;;2.90;76.83;99556.23;107987;1307;23003;-44